Marlboro, Vermont
Current Conditions -  °F | °C
As of 10:15 AM on Tuesday 21 Oct 2014 (Local Time) from KEEN Reporting Station
Overcast Overcast  
Wind Chill: 48°   Ceiling: 4500
Heat Index: 48°   Visibility: 10mi
Dew Point: 37°   Wind: 0mph
Humidity: 66%   Direction: NA
Pressure: 29.98"   Gusts: NA
Location:  42.86°N, 72.73°W
Report Text: KEEN 211415Z AUTO 00000KT 10SM SCT019 OVC045 09/03 A2998 RMK AO1
Loading
Personal Weather Stations






























Interactive Weather Map
Tropical Storm Tracking
New forecast layout! Learn more

10-Day Weather Forecast

Advertisements
Track Severe Weather on mobile